createdAt,value
2022-12-01T00:00:04.109Z,5.5
2022-12-01T00:01:04.206Z,5.5
2022-12-01T00:02:04.325Z,5.5
2022-12-01T00:03:04.371Z,5.4
2022-12-01T00:04:04.338Z,5.4
2022-12-01T00:05:04.419Z,5.5
2022-12-01T00:06:04.466Z,5.6
2022-12-01T00:07:04.529Z,5.5
2022-12-01T00:08:04.626Z,5.5
2022-12-01T00:09:04.620Z,5.5
2022-12-01T00:10:04.647Z,5.5
2022-12-01T00:11:04.763Z,5.6
2022-12-01T00:12:04.798Z,5.5
2022-12-01T00:13:04.897Z,5.5
2022-12-01T00:14:04.927Z,5.5
2022-12-01T00:15:04.980Z,5.5
2022-12-01T00:16:05.337Z,5.4
2022-12-01T00:17:05.127Z,5.4
2022-12-01T00:18:05.171Z,5.4
2022-12-01T00:19:05.224Z,5.4
2022-12-01T00:20:05.311Z,5.5
2022-12-01T00:21:05.355Z,5.4
2022-12-01T00:22:05.417Z,5.4
2022-12-01T00:23:05.466Z,5.4
2022-12-01T00:24:05.511Z,5.4
2022-12-01T00:25:05.568Z,5.4
2022-12-01T00:26:06.256Z,5.5
2022-12-01T00:27:05.708Z,5.4
2022-12-01T00:28:06.349Z,5.4
2022-12-01T00:29:05.763Z,5.4
2022-12-01T00:30:06.202Z,5.4
2022-12-01T00:31:05.894Z,5.5
2022-12-01T00:32:05.974Z,5.4
2022-12-01T00:33:05.985Z,5.4
2022-12-01T00:34:10.919Z,5.4
2022-12-01T00:35:06.088Z,5.4
2022-12-01T00:36:06.464Z,5.4
2022-12-01T00:37:06.362Z,5.4
2022-12-01T00:38:06.268Z,5.4
2022-12-01T00:39:06.340Z,5.4
2022-12-01T00:40:06.474Z,5.4
2022-12-01T00:41:06.415Z,5.4
2022-12-01T00:42:11.697Z,5.4
2022-12-01T00:43:06.537Z,5.4
2022-12-01T00:44:06.881Z,5.4
2022-12-01T00:45:06.702Z,5.4
2022-12-01T00:46:08.172Z,5.4
2022-12-01T00:47:06.798Z,5.4
2022-12-01T00:48:06.830Z,5.4
2022-12-01T00:49:06.914Z,5.4
2022-12-01T00:50:06.956Z,5.4
2022-12-01T00:51:07.031Z,5.4
2022-12-01T00:52:07.101Z,5.4
2022-12-01T00:53:07.159Z,5.4
2022-12-01T00:54:07.225Z,5.4
2022-12-01T00:55:07.285Z,5.4
2022-12-01T00:56:07.294Z,5.4
2022-12-01T00:57:07.348Z,5.4
2022-12-01T00:58:07.544Z,5.4
2022-12-01T00:59:07.461Z,5.4
2022-12-01T01:00:07.508Z,5.4
2022-12-01T01:01:07.714Z,5.4
2022-12-01T01:02:07.694Z,5.4
2022-12-01T01:03:07.666Z,5.4
2022-12-01T01:04:08.023Z,5.4
2022-12-01T01:05:07.802Z,5.4
2022-12-01T01:06:08.472Z,5.3
2022-12-01T01:07:07.908Z,5.3
2022-12-01T01:08:08.137Z,5.4
2022-12-01T01:09:08.045Z,5.4
2022-12-01T01:10:08.496Z,5.5
2022-12-01T01:11:08.172Z,5.5
2022-12-01T01:12:08.295Z,5.5
2022-12-01T01:13:08.201Z,5.6
2022-12-01T01:14:08.439Z,5.5
2022-12-01T01:15:08.315Z,5.5
2022-12-01T01:16:08.538Z,5.4
2022-12-01T01:17:08.491Z,5.4
2022-12-01T01:18:08.561Z,5.4
2022-12-01T01:19:08.694Z,5.5
2022-12-01T01:20:08.704Z,5.5
2022-12-01T01:21:08.675Z,5.4
2022-12-01T01:22:10.057Z,5.4
2022-12-01T01:23:08.721Z,5.4
2022-12-01T01:24:08.891Z,5.4
2022-12-01T01:25:10.568Z,5.4
2022-12-01T01:26:09.151Z,5.5
2022-12-01T01:27:09.026Z,5.5
2022-12-01T01:28:10.849Z,5.5
2022-12-01T01:29:09.194Z,5.5
2022-12-01T01:30:09.218Z,5.5
2022-12-01T01:31:11.483Z,5.5
2022-12-01T01:32:09.322Z,5.4
2022-12-01T01:33:09.371Z,5.4
2022-12-01T01:34:10.171Z,5.4
2022-12-01T01:35:14.505Z,5.4
2022-12-01T01:36:09.647Z,5.5
2022-12-01T01:37:11.507Z,5.5
2022-12-01T01:38:09.800Z,5.4
2022-12-01T01:39:09.762Z,5.4
2022-12-01T01:40:12.222Z,5.4
2022-12-01T01:41:09.846Z,5.4
2022-12-01T01:42:09.941Z,5.5
2022-12-01T01:43:11.501Z,5.5
2022-12-01T01:44:10.007Z,5.5
2022-12-01T01:45:10.087Z,5.5
2022-12-01T01:46:10.149Z,5.5
2022-12-01T01:47:10.189Z,5.4
2022-12-01T01:48:10.312Z,5.4
2022-12-01T01:49:10.462Z,5.4
2022-12-01T01:50:10.344Z,5.4
2022-12-01T01:51:10.396Z,5.5
2022-12-01T01:52:11.123Z,5.5
2022-12-01T01:53:10.468Z,5.5
2022-12-01T01:54:10.623Z,5.5
2022-12-01T01:55:10.601Z,5.5
2022-12-01T01:56:10.746Z,5.4
2022-12-01T01:57:10.729Z,5.4
2022-12-01T01:58:15.891Z,5.4
2022-12-01T01:59:10.849Z,5.5
2022-12-01T02:00:10.920Z,5.4
2022-12-01T02:01:11.015Z,5.4
2022-12-01T02:02:11.071Z,5.4
2022-12-01T02:03:11.068Z,5.4
2022-12-01T02:04:11.257Z,5.4
2022-12-01T02:05:11.256Z,5.4
2022-12-01T02:06:11.428Z,5.5
2022-12-01T02:07:11.431Z,5.5
2022-12-01T02:08:11.507Z,5.5
2022-12-01T02:09:11.558Z,5.4
2022-12-01T02:10:11.948Z,5.4
2022-12-01T02:11:11.673Z,5.5
2022-12-01T02:12:11.736Z,5.5
2022-12-01T02:13:11.988Z,5.5
2022-12-01T02:14:11.840Z,5.5
2022-12-01T02:15:11.919Z,5.5
2022-12-01T02:16:12.052Z,5.5
2022-12-01T02:17:12.037Z,5.5
2022-12-01T02:18:12.148Z,5.4
2022-12-01T02:19:12.105Z,5.4
2022-12-01T02:20:12.177Z,5.4
2022-12-01T02:21:12.212Z,5.4
2022-12-01T02:22:12.283Z,5.4
2022-12-01T02:23:12.304Z,5.4
2022-12-01T02:24:12.430Z,5.4
2022-12-01T02:25:12.424Z,5.4
2022-12-01T02:26:12.604Z,5.4
2022-12-01T02:27:12.579Z,5.4
2022-12-01T02:28:13.134Z,5.4
2022-12-01T02:29:12.682Z,5.5
2022-12-01T02:30:12.729Z,5.5
2022-12-01T02:31:15.057Z,5.5
2022-12-01T02:32:12.818Z,5.5
2022-12-01T02:33:12.901Z,5.5
2022-12-01T02:34:13.332Z,5.5
2022-12-01T02:35:13.019Z,5.5
2022-12-01T02:36:13.188Z,5.5
2022-12-01T02:37:13.127Z,5.5
2022-12-01T02:38:13.230Z,5.4
2022-12-01T02:39:13.243Z,5.4
2022-12-01T02:40:13.510Z,5.4
2022-12-01T02:41:13.452Z,5.4
2022-12-01T02:42:13.452Z,5.5
2022-12-01T02:43:13.489Z,5.5
2022-12-01T02:44:14.008Z,5.5
2022-12-01T02:45:13.576Z,5.5
2022-12-01T02:46:13.973Z,5.5
2022-12-01T02:47:13.711Z,5.5
2022-12-01T02:48:13.890Z,5.5
2022-12-01T02:49:13.796Z,5.5
2022-12-01T02:50:14.108Z,5.5
2022-12-01T02:51:13.938Z,5.4
2022-12-01T02:52:14.197Z,5.4
2022-12-01T02:53:14.007Z,5.5
2022-12-01T02:54:14.115Z,5.4
2022-12-01T02:55:14.108Z,5.5
2022-12-01T02:56:14.231Z,5.5
2022-12-01T02:57:14.232Z,5.5
2022-12-01T02:58:14.283Z,5.4
2022-12-01T02:59:14.337Z,5.4
2022-12-01T03:00:14.460Z,5.4
2022-12-01T03:01:14.483Z,5.4
2022-12-01T03:02:14.619Z,5.4
2022-12-01T03:03:14.557Z,5.4
2022-12-01T03:04:15.267Z,5.4
2022-12-01T03:05:14.700Z,5.4
2022-12-01T03:06:15.930Z,5.5
2022-12-01T03:07:14.798Z,5.5
2022-12-01T03:08:14.821Z,5.6
2022-12-01T03:09:14.903Z,5.6
2022-12-01T03:10:15.403Z,5.5
2022-12-01T03:11:15.029Z,5.5
2022-12-01T03:12:15.482Z,5.4
2022-12-01T03:13:15.202Z,5.5
2022-12-01T03:14:15.417Z,5.4
2022-12-01T03:15:15.257Z,5.4
2022-12-01T03:16:15.580Z,5.4
2022-12-01T03:17:15.359Z,5.4
2022-12-01T03:18:15.424Z,5.4
2022-12-01T03:19:15.437Z,5.4
2022-12-01T03:20:15.506Z,5.4
2022-12-01T03:21:15.569Z,5.4
2022-12-01T03:22:15.699Z,5.4
2022-12-01T03:23:15.714Z,5.4
2022-12-01T03:24:15.811Z,5.4
2022-12-01T03:25:15.809Z,5.4
2022-12-01T03:26:17.160Z,5.4
2022-12-01T03:27:15.963Z,5.5
2022-12-01T03:28:21.453Z,5.5
2022-12-01T03:29:16.043Z,5.4
2022-12-01T03:30:16.553Z,5.4
2022-12-01T03:31:16.234Z,5.4
2022-12-01T03:32:16.322Z,5.5
2022-12-01T03:33:16.284Z,5.5
2022-12-01T03:34:16.363Z,5.4
2022-12-01T03:35:16.369Z,5.5
2022-12-01T03:36:16.708Z,5.4
2022-12-01T03:37:16.510Z,5.5
2022-12-01T03:38:16.725Z,5.5
2022-12-01T03:39:16.635Z,5.5
2022-12-01T03:40:17.707Z,5.5
2022-12-01T03:41:16.735Z,5.5
2022-12-01T03:42:16.874Z,5.4
2022-12-01T03:43:16.808Z,5.5
2022-12-01T03:44:16.921Z,5.5
2022-12-01T03:45:16.937Z,5.5
2022-12-01T03:46:18.274Z,5.5
2022-12-01T03:47:17.042Z,5.5
2022-12-01T03:48:17.063Z,5.5
2022-12-01T03:49:17.111Z,5.4
2022-12-01T03:50:17.229Z,5.4
2022-12-01T03:51:17.235Z,5.5
2022-12-01T03:52:19.326Z,5.4
2022-12-01T03:53:17.329Z,5.4
2022-12-01T03:54:17.441Z,5.4
2022-12-01T03:55:56.015Z,5.4
2022-12-01T03:56:35.377Z,5.4
2022-12-01T03:57:17.589Z,5.4
2022-12-01T03:58:59.491Z,5.4
2022-12-01T03:59:31.758Z,5.4
2022-12-01T04:00:22.761Z,5.4
2022-12-01T04:02:10.309Z,5.5
2022-12-01T04:02:17.862Z,5.5
2022-12-01T04:03:17.940Z,5.5
2022-12-01T04:06:31.595Z,5.5
2022-12-01T04:07:18.101Z,5.5
2022-12-01T04:08:18.300Z,5.5
2022-12-01T04:09:18.193Z,5.5
2022-12-01T04:10:18.389Z,5.5
2022-12-01T04:11:18.351Z,5.5
2022-12-01T04:12:18.444Z,5.5
2022-12-01T04:13:18.444Z,5.5
2022-12-01T04:14:18.552Z,5.5
2022-12-01T04:15:18.588Z,5.5
2022-12-01T04:16:18.789Z,5.5
2022-12-01T04:17:18.800Z,5.4
2022-12-01T04:18:18.747Z,5.5
2022-12-01T04:19:18.824Z,5.5
2022-12-01T04:20:18.879Z,5.5
2022-12-01T04:21:18.921Z,5.5
2022-12-01T04:22:19.060Z,5.4
2022-12-01T04:23:19.161Z,5.4
2022-12-01T04:24:19.145Z,5.4
2022-12-01T04:25:19.235Z,5.4
2022-12-01T04:26:19.227Z,5.4
2022-12-01T04:27:19.274Z,5.4
2022-12-01T04:28:19.343Z,5.4
2022-12-01T04:29:19.409Z,5.4
2022-12-01T04:31:30.030Z,5.4
2022-12-01T04:32:19.591Z,5.4
2022-12-01T04:33:20.134Z,5.4
2022-12-01T04:34:19.904Z,5.4
2022-12-01T04:35:19.861Z,5.4
2022-12-01T04:36:19.885Z,5.4
2022-12-01T04:37:20.199Z,5.4
2022-12-01T04:38:20.036Z,5.4
2022-12-01T04:39:20.032Z,5.4
2022-12-01T04:40:20.099Z,5.4
2022-12-01T04:41:20.227Z,5.4
2022-12-01T04:42:20.238Z,5.4
2022-12-01T04:43:21.524Z,5.5
2022-12-01T04:44:20.342Z,5.4
2022-12-01T04:45:21.497Z,5.4
2022-12-01T04:46:20.453Z,5.3
2022-12-01T04:47:21.410Z,5.4
2022-12-01T04:48:20.604Z,5.4
2022-12-01T04:49:23.281Z,5.4
2022-12-01T04:50:20.676Z,5.3
2022-12-01T04:51:20.963Z,5.4
2022-12-01T04:52:20.763Z,5.4
2022-12-01T04:53:21.370Z,5.4
2022-12-01T04:54:20.917Z,5.4
2022-12-01T04:55:23.752Z,5.4
2022-12-01T04:56:20.969Z,5.4
2022-12-01T04:57:21.724Z,5.4
2022-12-01T04:58:21.120Z,5.4
2022-12-01T04:59:21.717Z,5.4
2022-12-01T05:00:21.253Z,5.3
2022-12-01T05:01:21.531Z,5.4
2022-12-01T05:02:21.401Z,5.4
2022-12-01T05:03:22.866Z,5.4
2022-12-01T05:04:21.811Z,5.4
2022-12-01T05:05:21.603Z,5.4
2022-12-01T05:06:21.629Z,5.4
2022-12-01T05:07:24.296Z,5.4
2022-12-01T05:08:21.702Z,5.3
2022-12-01T05:09:21.847Z,5.4
2022-12-01T05:10:22.416Z,5.4
2022-12-01T05:11:23.149Z,5.4
2022-12-01T05:12:21.947Z,5.3
2022-12-01T05:13:24.890Z,5.3
2022-12-01T05:14:22.066Z,5.3
2022-12-01T05:15:22.229Z,5.3
2022-12-01T05:16:23.548Z,5.3
2022-12-01T05:17:22.329Z,5.4
2022-12-01T05:18:22.467Z,5.4
2022-12-01T05:19:22.403Z,5.4
2022-12-01T05:20:22.376Z,5.4
2022-12-01T05:21:23.047Z,5.4
2022-12-01T05:22:36.643Z,5.4
2022-12-01T05:23:22.566Z,5.4
2022-12-01T05:24:22.627Z,5.4
2022-12-01T05:25:23.107Z,5.4
2022-12-01T05:26:22.764Z,5.4
2022-12-01T05:27:22.790Z,5.4
2022-12-01T05:28:24.727Z,5.4
2022-12-01T05:29:22.914Z,5.4
2022-12-01T05:30:27.060Z,5.4
2022-12-01T05:31:23.903Z,5.4
2022-12-01T05:32:23.058Z,5.4
2022-12-01T05:33:23.133Z,5.4
2022-12-01T05:34:24.026Z,5.4
2022-12-01T05:35:23.211Z,5.4
2022-12-01T05:36:23.321Z,5.4
2022-12-01T05:37:25.598Z,5.4
2022-12-01T05:38:23.401Z,5.4
2022-12-01T05:39:23.480Z,5.4
2022-12-01T05:40:23.482Z,5.5
2022-12-01T05:41:23.532Z,5.5
2022-12-01T05:42:23.640Z,5.4
2022-12-01T05:43:28.878Z,5.4
2022-12-01T05:44:23.702Z,5.4
2022-12-01T05:45:23.723Z,5.4
2022-12-01T05:46:24.231Z,5.4
2022-12-01T05:47:23.955Z,5.3
2022-12-01T05:48:24.006Z,5.3
2022-12-01T05:49:26.271Z,5.4
2022-12-01T05:50:24.117Z,5.4
2022-12-01T05:51:24.179Z,5.3
2022-12-01T05:52:25.169Z,5.4
2022-12-01T05:53:24.294Z,5.4
2022-12-01T05:54:24.357Z,5.3
2022-12-01T05:55:24.494Z,5.3
2022-12-01T05:56:24.487Z,5.3
2022-12-01T05:57:24.480Z,5.3
2022-12-01T05:58:24.567Z,5.3
2022-12-01T05:59:24.563Z,5.3
2022-12-01T06:00:24.687Z,5.3
2022-12-01T06:01:25.550Z,5.3
2022-12-01T06:02:24.838Z,5.3
2022-12-01T06:03:24.817Z,5.3
2022-12-01T06:04:24.914Z,5.3
2022-12-01T06:05:24.988Z,5.3
2022-12-01T06:06:25.060Z,5.3
2022-12-01T06:07:25.113Z,5.3
2022-12-01T06:08:25.132Z,5.2
2022-12-01T06:09:25.211Z,5.2
2022-12-01T06:10:25.222Z,5.3
2022-12-01T06:11:25.252Z,5.3
2022-12-01T06:12:25.285Z,5.3
2022-12-01T06:13:25.348Z,5.3
2022-12-01T06:14:25.447Z,5.3
2022-12-01T06:15:25.504Z,5.3
2022-12-01T06:16:25.596Z,5.3
2022-12-01T06:17:25.594Z,5.3
2022-12-01T06:18:25.666Z,5.3
2022-12-01T06:19:25.709Z,5.4
2022-12-01T06:20:28.867Z,5.4
2022-12-01T06:21:25.828Z,5.4
2022-12-01T06:22:25.893Z,5.3
2022-12-01T06:23:30.120Z,5.3
2022-12-01T06:24:26.070Z,5.3
2022-12-01T06:25:26.092Z,5.3
2022-12-01T06:26:26.159Z,5.3
2022-12-01T06:27:26.229Z,5.3
2022-12-01T06:28:26.280Z,5.3
2022-12-01T06:29:26.363Z,5.5
2022-12-01T06:30:27.392Z,5.5
2022-12-01T06:31:27.502Z,5.5
2022-12-01T06:32:27.496Z,5.4
2022-12-01T06:33:32.571Z,5.4
2022-12-01T06:34:27.701Z,5.4
2022-12-01T06:35:27.686Z,5.3
2022-12-01T06:36:27.768Z,5.3
2022-12-01T06:37:27.816Z,5.3
2022-12-01T06:38:27.889Z,5.3
2022-12-01T06:39:27.947Z,5.2
2022-12-01T06:40:27.987Z,5.2
2022-12-01T06:41:28.075Z,5.1
2022-12-01T06:42:28.141Z,5.1
2022-12-01T06:43:28.183Z,5.1
2022-12-01T06:44:28.258Z,5.1
2022-12-01T06:45:28.328Z,5.1
2022-12-01T06:46:28.417Z,5.1
2022-12-01T06:47:28.383Z,5.1
2022-12-01T06:48:28.441Z,5.1
2022-12-01T06:49:29.428Z,5.1
2022-12-01T06:50:28.590Z,5.1
2022-12-01T06:51:28.646Z,5.2
2022-12-01T06:52:28.702Z,5.2
2022-12-01T06:53:28.779Z,5.2
2022-12-01T06:54:28.826Z,5.2
2022-12-01T06:55:28.905Z,5.2
2022-12-01T06:56:28.987Z,5.3
2022-12-01T06:57:29.020Z,5.2
2022-12-01T06:58:29.057Z,5.1
2022-12-01T06:59:29.161Z,5.1
2022-12-01T07:00:29.294Z,5.2
2022-12-01T07:01:29.289Z,5.3
2022-12-01T07:02:29.349Z,5.3
2022-12-01T07:03:29.328Z,5.3
2022-12-01T07:04:29.375Z,5.3
2022-12-01T07:05:29.432Z,5.3
2022-12-01T07:06:29.511Z,5.4
2022-12-01T07:07:29.627Z,5.3
2022-12-01T07:08:29.656Z,5.3
2022-12-01T07:09:29.677Z,5.2
2022-12-01T07:10:29.715Z,5.2
2022-12-01T07:11:30.666Z,5.2
2022-12-01T07:12:29.871Z,5.2
2022-12-01T07:13:33.255Z,5.2
2022-12-01T07:14:29.981Z,5.2
2022-12-01T07:15:30.077Z,5.3
2022-12-01T07:16:30.216Z,5.3
2022-12-01T07:17:30.154Z,5.3
2022-12-01T07:18:30.230Z,5.3
2022-12-01T07:19:30.264Z,5.2
2022-12-01T07:20:30.331Z,5.2
2022-12-01T07:21:30.383Z,5.2
2022-12-01T07:22:32.537Z,5.2
2022-12-01T07:23:30.484Z,5.3
2022-12-01T07:24:30.529Z,5.3
2022-12-01T07:25:30.619Z,5.4
2022-12-01T07:26:30.695Z,5.4
2022-12-01T07:27:30.725Z,5.3
2022-12-01T07:28:30.760Z,5.3
2022-12-01T07:29:30.813Z,5.3
2022-12-01T07:30:30.891Z,5.4
2022-12-01T07:31:31.586Z,5.2
2022-12-01T07:32:31.007Z,5.3
2022-12-01T07:33:31.058Z,5.4
2022-12-01T07:34:31.128Z,5.4
2022-12-01T07:35:31.172Z,5.4
2022-12-01T07:36:31.245Z,5.4
2022-12-01T07:37:31.261Z,5.4
2022-12-01T07:38:31.352Z,5.3
2022-12-01T07:39:31.360Z,5.5
2022-12-01T07:40:31.411Z,5.5
2022-12-01T07:41:31.472Z,5.4
2022-12-01T07:42:31.591Z,5.3
2022-12-01T07:43:31.547Z,5.2
2022-12-01T07:44:31.643Z,5.2
2022-12-01T07:45:31.686Z,5.2
2022-12-01T07:46:31.837Z,5.4
2022-12-01T07:47:31.829Z,5.5
2022-12-01T07:48:31.908Z,5.4
2022-12-01T07:49:31.923Z,5.3
2022-12-01T07:50:32.032Z,5.4
2022-12-01T07:51:32.037Z,5.3
2022-12-01T07:52:32.164Z,5.4
2022-12-01T07:53:32.147Z,5.4
2022-12-01T07:54:32.183Z,5.4
2022-12-01T07:55:32.265Z,5.4
2022-12-01T07:56:32.304Z,5.3
2022-12-01T07:57:32.335Z,5.4
2022-12-01T07:58:32.393Z,5.4
2022-12-01T07:59:32.455Z,5.4
2022-12-01T08:00:32.515Z,5.5
2022-12-01T08:01:32.609Z,5.4
2022-12-01T08:02:32.666Z,5.4
2022-12-01T08:03:32.727Z,5.4
2022-12-01T08:04:32.749Z,5.4
2022-12-01T08:05:32.829Z,5.4
2022-12-01T08:06:32.928Z,5.5
2022-12-01T08:07:32.919Z,5.5
2022-12-01T08:08:35.080Z,5.4
2022-12-01T08:09:33.054Z,5.5
2022-12-01T08:10:33.077Z,5.4
2022-12-01T08:11:43.390Z,5.3
2022-12-01T08:12:38.176Z,5.3
2022-12-01T08:13:38.323Z,5.3
2022-12-01T08:14:33.303Z,5.4
2022-12-01T08:15:33.406Z,5.4
2022-12-01T08:16:33.411Z,5.4
2022-12-01T08:17:33.515Z,5.4
2022-12-01T08:18:33.605Z,5.4
2022-12-01T08:19:33.718Z,5.4
2022-12-01T08:20:33.789Z,5.4
2022-12-01T08:21:33.854Z,5.4
2022-12-01T08:22:33.890Z,5.4
2022-12-01T08:23:33.922Z,5.4
2022-12-01T08:24:34.020Z,5.4
2022-12-01T08:25:34.679Z,5.4
2022-12-01T08:26:34.154Z,5.4
2022-12-01T08:27:34.262Z,5.5
2022-12-01T08:28:34.257Z,5.5
2022-12-01T08:29:34.281Z,5.5
2022-12-01T08:30:34.347Z,5.5
2022-12-01T08:31:34.452Z,5.5
2022-12-01T08:32:34.458Z,5.5
2022-12-01T08:33:34.551Z,5.4
2022-12-01T08:34:34.629Z,5.4
2022-12-01T08:35:34.695Z,5.4
2022-12-01T08:36:34.751Z,5.4
2022-12-01T08:37:36.961Z,5.4
2022-12-01T08:38:34.801Z,5.4
2022-12-01T08:39:38.290Z,5.5
2022-12-01T08:40:53.588Z,5.5
2022-12-01T08:42:11.612Z,5.5
2022-12-01T08:42:52.724Z,5.6
2022-12-01T08:45:29.719Z,5.8
2022-12-01T08:45:37.465Z,5.7
2022-12-01T08:46:35.307Z,5.6
2022-12-01T08:47:35.340Z,5.5
2022-12-01T08:48:35.335Z,5.5
2022-12-01T08:49:35.404Z,5.5
2022-12-01T08:50:35.445Z,5.5
2022-12-01T08:51:35.589Z,5.6
2022-12-01T08:52:35.634Z,5.5
2022-12-01T08:53:35.702Z,5.5
2022-12-01T08:54:35.764Z,5.5
2022-12-01T08:55:35.819Z,5.4
2022-12-01T08:56:36.046Z,5.5
2022-12-01T08:57:36.044Z,5.5
2022-12-01T08:58:35.962Z,5.4
2022-12-01T08:59:36.094Z,5.4
2022-12-01T09:00:36.081Z,5.4
2022-12-01T09:01:36.203Z,5.5
2022-12-01T09:02:36.290Z,5.4
2022-12-01T09:03:36.253Z,5.3
2022-12-01T09:04:36.322Z,5.5
2022-12-01T09:05:36.396Z,5.6
2022-12-01T09:06:36.470Z,5.5
2022-12-01T09:07:36.611Z,5.5
2022-12-01T09:08:36.571Z,5.6
2022-12-01T09:09:36.678Z,5.5
2022-12-01T09:10:36.718Z,5.5
2022-12-01T09:11:36.774Z,5.5
2022-12-01T09:12:36.852Z,5.5
2022-12-01T09:13:36.881Z,5.5
2022-12-01T09:14:36.968Z,5.4
2022-12-01T09:15:37.042Z,5.5
2022-12-01T09:16:38.243Z,5.4
2022-12-01T09:17:37.159Z,5.5
2022-12-01T09:18:37.245Z,5.5
2022-12-01T09:19:37.289Z,5.6
2022-12-01T09:20:37.335Z,5.5
2022-12-01T09:21:37.373Z,5.4
2022-12-01T09:22:37.546Z,5.4
2022-12-01T09:23:37.513Z,5.4
2022-12-01T09:24:37.542Z,5.5
2022-12-01T09:25:37.956Z,5.5
2022-12-01T09:26:37.746Z,5.5
2022-12-01T09:27:37.900Z,5.5
2022-12-01T09:28:38.000Z,5.6
2022-12-01T09:29:38.058Z,5.5
2022-12-01T09:30:38.116Z,5.6
2022-12-01T09:31:38.715Z,5.6
2022-12-01T09:32:38.239Z,5.6
2022-12-01T09:33:38.286Z,5.6
2022-12-01T09:34:38.355Z,5.6
2022-12-01T09:35:38.407Z,5.5
2022-12-01T09:36:39.519Z,5.4
2022-12-01T09:37:38.599Z,5.4
2022-12-01T09:38:43.600Z,5.4
2022-12-01T09:39:38.637Z,5.5
2022-12-01T09:40:38.707Z,5.4
2022-12-01T09:41:38.777Z,5.4
2022-12-01T09:42:43.832Z,5.4
2022-12-01T09:43:38.855Z,5.4
2022-12-01T09:44:38.971Z,5.4
2022-12-01T09:45:39.025Z,5.4
2022-12-01T09:46:39.096Z,5.5
2022-12-01T09:47:39.093Z,5.5
2022-12-01T09:48:39.201Z,5.6
2022-12-01T09:49:39.224Z,5.6
2022-12-01T09:50:39.326Z,5.5
2022-12-01T09:51:39.317Z,5.5
2022-12-01T09:52:39.373Z,5.5
2022-12-01T09:53:39.474Z,5.6
2022-12-01T09:54:39.552Z,5.6
2022-12-01T09:55:39.842Z,5.7
2022-12-01T09:56:39.662Z,5.8
2022-12-01T09:57:39.699Z,5.7
2022-12-01T09:58:39.768Z,5.7
2022-12-01T09:59:39.803Z,5.6
2022-12-01T10:00:39.860Z,5.5
2022-12-01T10:01:39.879Z,5.5
2022-12-01T10:02:39.927Z,5.4
2022-12-01T10:03:40.071Z,5.4
2022-12-01T10:04:40.171Z,5.4
2022-12-01T10:05:51.425Z,5.4
2022-12-01T10:06:40.373Z,5.5
2022-12-01T10:07:40.316Z,5.5
2022-12-01T10:08:40.309Z,5.5
2022-12-01T10:09:40.324Z,5.6
2022-12-01T10:10:40.407Z,5.6
2022-12-01T10:11:40.432Z,5.5
2022-12-01T10:12:40.533Z,5.4
2022-12-01T10:13:43.643Z,5.4
2022-12-01T10:14:40.660Z,5.5
2022-12-01T10:15:40.686Z,5.5
2022-12-01T10:16:40.754Z,5.4
2022-12-01T10:17:40.802Z,5.5
2022-12-01T10:18:40.874Z,5.5
2022-12-01T10:19:40.950Z,5.5
2022-12-01T10:20:41.009Z,5.5
2022-12-01T10:21:41.085Z,5.6
2022-12-01T10:22:41.123Z,5.6
2022-12-01T10:23:41.178Z,5.6
2022-12-01T10:24:41.280Z,5.5
2022-12-01T10:25:41.340Z,5.5
2022-12-01T10:26:41.368Z,5.5
2022-12-01T10:27:41.398Z,5.5
2022-12-01T10:28:41.470Z,5.7
2022-12-01T10:29:45.033Z,5.7
2022-12-01T10:30:41.528Z,5.5
2022-12-01T10:31:41.609Z,5.5
2022-12-01T10:32:41.650Z,5.5
2022-12-01T10:33:41.733Z,5.5
2022-12-01T10:34:41.746Z,5.5
2022-12-01T10:35:41.810Z,5.6
2022-12-01T10:36:41.880Z,5.6
2022-12-01T10:37:41.926Z,5.5
2022-12-01T10:38:42.018Z,5.4
2022-12-01T10:39:42.060Z,5.4
2022-12-01T10:40:42.216Z,5.3
2022-12-01T10:41:42.176Z,5.5
2022-12-01T10:42:42.253Z,5.6
2022-12-01T10:43:42.299Z,5.6
2022-12-01T10:44:42.363Z,5.7
2022-12-01T10:45:42.497Z,5.8
2022-12-01T10:46:42.447Z,5.8
2022-12-01T10:47:42.530Z,5.7
2022-12-01T10:48:42.597Z,5.7
2022-12-01T10:49:42.622Z,5.7
2022-12-01T10:50:42.662Z,5.6
2022-12-01T10:51:42.730Z,5.7
2022-12-01T10:52:42.812Z,5.7
2022-12-01T10:53:43.330Z,5.7
2022-12-01T10:54:43.174Z,5.6
2022-12-01T10:55:47.729Z,5.6
2022-12-01T10:56:48.091Z,5.6
2022-12-01T10:57:43.136Z,5.7
2022-12-01T10:58:53.235Z,5.7
2022-12-01T10:59:43.541Z,5.8
2022-12-01T11:00:58.929Z,5.8
2022-12-01T11:01:50.376Z,5.7
2022-12-01T11:02:43.658Z,5.8
2022-12-01T11:03:43.533Z,5.7
2022-12-01T11:04:43.517Z,5.7
2022-12-01T11:05:53.579Z,5.7
2022-12-01T11:06:43.598Z,5.7
2022-12-01T11:07:43.691Z,5.8
2022-12-01T11:08:43.711Z,5.9
2022-12-01T11:09:43.808Z,5.9
2022-12-01T11:10:43.889Z,5.8
2022-12-01T11:11:43.915Z,5.8
2022-12-01T11:12:44.020Z,5.8
2022-12-01T11:13:44.055Z,5.8
2022-12-01T11:14:44.165Z,5.8
2022-12-01T11:15:45.267Z,5.8
2022-12-01T11:16:44.294Z,5.8
2022-12-01T11:17:50.212Z,5.8
2022-12-01T11:18:44.339Z,5.8
2022-12-01T11:19:44.468Z,5.8
2022-12-01T11:29:45.283Z,5.9
2022-12-01T11:30:45.291Z,5.9
2022-12-01T11:31:45.451Z,5.9
2022-12-01T11:32:50.435Z,5.8
2022-12-01T11:33:45.528Z,5.8
2022-12-01T11:34:45.571Z,5.7
2022-12-01T11:35:45.614Z,5.8
2022-12-01T11:36:45.682Z,5.8
2022-12-01T11:37:50.521Z,5.9
2022-12-01T11:38:45.824Z,5.9
2022-12-01T11:39:45.840Z,5.9
2022-12-01T11:40:45.876Z,5.9
2022-12-01T11:41:45.929Z,5.9
2022-12-01T11:42:46.023Z,6
2022-12-01T11:43:48.845Z,5.9
2022-12-01T11:44:56.226Z,6.1
2022-12-01T11:45:46.168Z,6
2022-12-01T11:47:21.379Z,5.9
2022-12-01T11:47:46.211Z,6
2022-12-01T11:48:46.251Z,5.9
2022-12-01T11:49:47.392Z,5.9
2022-12-01T11:50:46.362Z,5.9
2022-12-01T11:51:46.606Z,6
2022-12-01T11:52:46.400Z,6
2022-12-01T12:07:13.767Z,6.1
2022-12-01T12:08:13.722Z,6.1
2022-12-01T12:09:13.843Z,6.1
2022-12-01T12:10:19.598Z,6.1
2022-12-01T12:11:13.939Z,6.1
2022-12-01T12:12:13.997Z,6.1
2022-12-01T12:13:14.037Z,6
2022-12-01T12:14:14.112Z,6
2022-12-01T12:15:14.146Z,6
2022-12-01T12:16:24.551Z,6
2022-12-01T12:17:14.302Z,6.1
2022-12-01T12:18:14.403Z,6.1
2022-12-01T12:19:14.363Z,6.1
2022-12-01T12:20:14.609Z,6.1
2022-12-01T12:21:18.146Z,6.1
2022-12-01T12:22:17.915Z,6.1
2022-12-01T12:23:14.611Z,6.2
2022-12-01T12:24:19.341Z,6.3
2022-12-01T12:30:19.329Z,6.3
2022-12-01T12:31:15.212Z,6.4
2022-12-01T12:32:17.591Z,6.5
2022-12-01T12:33:15.153Z,6.6
2022-12-01T12:34:21.596Z,6.5
2022-12-01T12:35:15.310Z,6.4
2022-12-01T12:36:18.946Z,6.5
2022-12-01T12:37:15.383Z,6.6
2022-12-01T12:38:20.247Z,6.5
2022-12-01T12:39:16.887Z,6.5
2022-12-01T12:40:17.357Z,6.6
2022-12-01T12:41:15.626Z,6.5
2022-12-01T12:42:22.196Z,6.5
2022-12-01T12:43:15.726Z,6.7
2022-12-01T12:44:22.060Z,7
2022-12-01T12:45:15.842Z,6.9
2022-12-01T12:46:34.678Z,6.9
2022-12-01T12:47:15.982Z,6.8
2022-12-01T12:48:23.857Z,6.8
2022-12-01T12:49:20.372Z,7.1
2022-12-01T12:50:24.043Z,7.3
2022-12-01T12:51:16.150Z,7.7
2022-12-01T12:52:24.037Z,7.7
2022-12-01T12:53:16.275Z,7.7
2022-12-01T12:54:24.226Z,7.7
2022-12-01T12:55:16.404Z,7.5
2022-12-01T12:56:24.076Z,7.7
2022-12-01T12:57:16.417Z,7.8
2022-12-01T12:58:25.515Z,7.6
2022-12-01T13:04:08.022Z,7.1
2022-12-01T13:05:05.461Z,7.1
2022-12-01T13:06:05.512Z,6.7
2022-12-01T13:07:05.545Z,6.5
2022-12-01T13:08:05.657Z,6.6
2022-12-01T13:09:05.694Z,6.7
2022-12-01T13:10:08.594Z,6.7
2022-12-01T13:11:05.758Z,6.5
2022-12-01T13:12:05.840Z,6.6
2022-12-01T13:13:07.814Z,6.6
2022-12-01T13:14:05.944Z,6.7
2022-12-01T13:15:06.197Z,6.5
2022-12-01T13:16:16.616Z,6.5
2022-12-01T13:17:06.090Z,6.4
2022-12-01T13:18:11.974Z,6.3
2022-12-01T13:19:14.816Z,6.2
2022-12-01T13:20:10.967Z,6.2
2022-12-01T13:21:14.403Z,6.1
2022-12-01T13:22:16.345Z,6.2
2022-12-01T13:23:34.621Z,6.3
2022-12-01T13:24:09.924Z,6.2
2022-12-01T13:25:57.356Z,6.2
2022-12-01T13:26:13.012Z,6.1
2022-12-01T13:27:06.804Z,6.1
2022-12-01T13:29:48.332Z,5.9
2022-12-01T13:30:06.918Z,6
2022-12-01T13:31:06.988Z,6
2022-12-01T13:32:06.990Z,6
2022-12-01T13:33:07.013Z,6
2022-12-01T13:34:07.126Z,6.1
2022-12-01T13:35:07.158Z,6
2022-12-01T13:36:38.518Z,6.1
2022-12-01T13:37:07.200Z,5.9
2022-12-01T13:38:07.244Z,6
2022-12-01T13:39:07.325Z,6.1
2022-12-01T13:40:07.456Z,6
2022-12-01T13:41:09.412Z,6.2
2022-12-01T13:42:07.573Z,6.2
2022-12-01T13:44:07.730Z,6.1
2022-12-01T13:45:07.780Z,6.2
2022-12-01T13:46:07.849Z,6.1
2022-12-01T13:47:07.868Z,6
2022-12-01T13:48:07.898Z,6.1
2022-12-01T13:59:08.463Z,5.7
2022-12-01T14:00:08.513Z,5.7
2022-12-01T14:01:11.247Z,5.7
2022-12-01T14:02:08.596Z,5.8
2022-12-01T14:03:08.668Z,5.9
2022-12-01T14:04:08.641Z,5.8
2022-12-01T14:05:08.669Z,5.8
2022-12-01T14:06:08.753Z,5.8
2022-12-01T14:07:08.749Z,5.8
2022-12-01T14:08:08.843Z,5.7
2022-12-01T14:09:08.907Z,5.7
2022-12-01T14:10:08.944Z,5.7
2022-12-01T14:11:08.986Z,5.5
2022-12-01T14:12:09.076Z,5.4
2022-12-01T14:13:09.104Z,5.5
2022-12-01T14:14:09.193Z,5.5
2022-12-01T14:15:09.302Z,5.5
2022-12-01T14:16:09.739Z,5.4
2022-12-01T14:17:09.324Z,5.3
2022-12-01T14:18:09.429Z,5.3
2022-12-01T14:19:09.537Z,5.4
2022-12-01T14:20:09.550Z,5.4
2022-12-01T14:21:09.609Z,5.4
2022-12-01T14:22:09.676Z,5.5
2022-12-01T14:23:10.107Z,5.5
2022-12-01T14:24:11.019Z,5.7
2022-12-01T14:25:09.847Z,5.6
2022-12-01T14:26:09.957Z,5.6
2022-12-01T14:27:15.696Z,5.6
2022-12-01T14:28:11.135Z,5.6
2022-12-01T14:29:22.937Z,5.7
2022-12-01T14:30:48.611Z,5.7
2022-12-01T14:31:58.941Z,5.7
2022-12-01T14:33:07.892Z,5.8
2022-12-01T14:34:36.631Z,5.7
2022-12-01T14:35:37.276Z,5.6
2022-12-01T14:36:41.399Z,5.6
2022-12-01T14:37:40.954Z,5.6